sensor_id;sensor_type;location;lat;lon;timestamp;P1;durP1;ratioP1;P2;durP2;ratioP2
47555;SDS011;33291;46.222;26.460;2022-12-07T00:01:31;11.50;;;5.85;;
47555;SDS011;33291;46.222;26.460;2022-12-07T00:04:03;9.82;;;5.97;;
47555;SDS011;33291;46.222;26.460;2022-12-07T00:06:30;10.68;;;5.07;;
47555;SDS011;33291;46.222;26.460;2022-12-07T00:08:56;12.80;;;7.07;;
47555;SDS011;33291;46.222;26.460;2022-12-07T00:11:22;8.82;;;5.25;;
47555;SDS011;33291;46.222;26.460;2022-12-07T00:13:58;5.47;;;3.58;;
47555;SDS011;33291;46.222;26.460;2022-12-07T00:16:28;7.55;;;2.60;;
47555;SDS011;33291;46.222;26.460;2022-12-07T00:18:55;8.38;;;3.85;;
47555;SDS011;33291;46.222;26.460;2022-12-07T00:21:22;7.65;;;4.50;;
47555;SDS011;33291;46.222;26.460;2022-12-07T00:23:53;11.57;;;6.20;;
47555;SDS011;33291;46.222;26.460;2022-12-07T00:26:20;11.30;;;5.18;;
47555;SDS011;33291;46.222;26.460;2022-12-07T00:28:51;8.13;;;5.03;;
47555;SDS011;33291;46.222;26.460;2022-12-07T00:31:19;10.23;;;5.55;;
47555;SDS011;33291;46.222;26.460;2022-12-07T00:33:47;14.35;;;6.65;;
47555;SDS011;33291;46.222;26.460;2022-12-07T00:36:14;11.68;;;6.40;;
47555;SDS011;33291;46.222;26.460;2022-12-07T00:38:42;9.90;;;5.35;;
47555;SDS011;33291;46.222;26.460;2022-12-07T00:41:12;12.38;;;4.82;;
47555;SDS011;33291;46.222;26.460;2022-12-07T00:43:42;11.90;;;5.43;;
47555;SDS011;33291;46.222;26.460;2022-12-07T00:46:09;26.27;;;13.35;;
47555;SDS011;33291;46.222;26.460;2022-12-07T00:48:35;32.40;;;16.48;;
47555;SDS011;33291;46.222;26.460;2022-12-07T00:51:01;34.88;;;17.15;;
47555;SDS011;33291;46.222;26.460;2022-12-07T00:53:28;30.20;;;16.10;;
47555;SDS011;33291;46.222;26.460;2022-12-07T00:55:53;23.63;;;13.02;;
47555;SDS011;33291;46.222;26.460;2022-12-07T00:58:21;22.88;;;12.35;;
47555;SDS011;33291;46.222;26.460;2022-12-07T01:00:47;23.58;;;12.48;;
47555;SDS011;33291;46.222;26.460;2022-12-07T01:03:13;29.83;;;13.25;;
47555;SDS011;33291;46.222;26.460;2022-12-07T01:05:40;32.80;;;15.27;;
47555;SDS011;33291;46.222;26.460;2022-12-07T01:08:17;36.78;;;18.23;;
47555;SDS011;33291;46.222;26.460;2022-12-07T01:10:43;32.80;;;17.30;;
47555;SDS011;33291;46.222;26.460;2022-12-07T01:13:09;33.83;;;17.58;;
47555;SDS011;33291;46.222;26.460;2022-12-07T01:15:38;35.13;;;16.48;;
47555;SDS011;33291;46.222;26.460;2022-12-07T01:18:05;25.20;;;14.45;;
47555;SDS011;33291;46.222;26.460;2022-12-07T01:20:30;33.50;;;13.63;;
47555;SDS011;33291;46.222;26.460;2022-12-07T01:22:56;21.38;;;12.13;;
47555;SDS011;33291;46.222;26.460;2022-12-07T01:25:21;26.75;;;14.00;;
47555;SDS011;33291;46.222;26.460;2022-12-07T01:27:47;29.75;;;15.48;;
47555;SDS011;33291;46.222;26.460;2022-12-07T01:30:12;27.65;;;14.80;;
47555;SDS011;33291;46.222;26.460;2022-12-07T01:32:38;25.15;;;13.02;;
47555;SDS011;33291;46.222;26.460;2022-12-07T01:35:04;25.98;;;12.25;;
47555;SDS011;33291;46.222;26.460;2022-12-07T01:37:33;26.52;;;12.13;;
47555;SDS011;33291;46.222;26.460;2022-12-07T01:40:03;20.88;;;11.13;;
47555;SDS011;33291;46.222;26.460;2022-12-07T01:42:31;20.13;;;10.20;;
47555;SDS011;33291;46.222;26.460;2022-12-07T01:48:00;22.17;;;11.70;;
47555;SDS011;33291;46.222;26.460;2022-12-07T01:50:27;18.52;;;9.77;;
47555;SDS011;33291;46.222;26.460;2022-12-07T01:52:56;17.02;;;9.50;;
47555;SDS011;33291;46.222;26.460;2022-12-07T01:55:24;18.48;;;9.48;;
47555;SDS011;33291;46.222;26.460;2022-12-07T01:57:50;16.80;;;9.25;;
47555;SDS011;33291;46.222;26.460;2022-12-07T02:00:18;18.63;;;9.52;;
47555;SDS011;33291;46.222;26.460;2022-12-07T02:02:52;18.90;;;10.70;;
47555;SDS011;33291;46.222;26.460;2022-12-07T02:05:23;19.65;;;9.20;;
47555;SDS011;33291;46.222;26.460;2022-12-07T02:07:49;17.58;;;10.18;;
47555;SDS011;33291;46.222;26.460;2022-12-07T02:12:46;18.02;;;10.35;;
47555;SDS011;33291;46.222;26.460;2022-12-07T02:15:15;16.63;;;8.10;;
47555;SDS011;33291;46.222;26.460;2022-12-07T02:17:46;23.25;;;9.95;;
47555;SDS011;33291;46.222;26.460;2022-12-07T02:20:30;16.45;;;8.38;;
47555;SDS011;33291;46.222;26.460;2022-12-07T02:31:31;41.97;;;18.30;;
47555;SDS011;33291;46.222;26.460;2022-12-07T02:34:00;32.30;;;17.33;;
47555;SDS011;33291;46.222;26.460;2022-12-07T02:36:34;33.45;;;18.60;;
47555;SDS011;33291;46.222;26.460;2022-12-07T02:41:36;28.27;;;15.38;;
47555;SDS011;33291;46.222;26.460;2022-12-07T02:44:13;26.08;;;12.88;;
47555;SDS011;33291;46.222;26.460;2022-12-07T02:46:43;24.10;;;12.77;;
47555;SDS011;33291;46.222;26.460;2022-12-07T02:49:14;23.20;;;13.57;;
47555;SDS011;33291;46.222;26.460;2022-12-07T02:51:42;25.58;;;13.68;;
47555;SDS011;33291;46.222;26.460;2022-12-07T02:54:16;32.58;;;17.30;;
47555;SDS011;33291;46.222;26.460;2022-12-07T03:07:21;22.63;;;13.57;;
47555;SDS011;33291;46.222;26.460;2022-12-07T03:09:55;24.65;;;12.60;;
47555;SDS011;33291;46.222;26.460;2022-12-07T03:12:25;26.48;;;15.45;;
47555;SDS011;33291;46.222;26.460;2022-12-07T03:15:02;26.33;;;13.63;;
47555;SDS011;33291;46.222;26.460;2022-12-07T03:17:33;27.60;;;16.63;;
47555;SDS011;33291;46.222;26.460;2022-12-07T03:20:04;34.58;;;17.38;;
47555;SDS011;33291;46.222;26.460;2022-12-07T03:22:31;25.02;;;14.73;;
47555;SDS011;33291;46.222;26.460;2022-12-07T03:25:01;25.65;;;15.10;;
47555;SDS011;33291;46.222;26.460;2022-12-07T03:27:50;29.20;;;16.23;;
47555;SDS011;33291;46.222;26.460;2022-12-07T03:30:18;28.05;;;15.40;;
47555;SDS011;33291;46.222;26.460;2022-12-07T03:32:50;22.95;;;13.70;;
47555;SDS011;33291;46.222;26.460;2022-12-07T03:40:35;18.98;;;11.32;;
47555;SDS011;33291;46.222;26.460;2022-12-07T03:43:05;17.25;;;7.97;;
47555;SDS011;33291;46.222;26.460;2022-12-07T03:45:41;13.48;;;8.13;;
47555;SDS011;33291;46.222;26.460;2022-12-07T03:51:01;20.45;;;9.38;;
47555;SDS011;33291;46.222;26.460;2022-12-07T03:53:40;14.57;;;8.70;;
47555;SDS011;33291;46.222;26.460;2022-12-07T03:56:09;11.38;;;7.35;;
47555;SDS011;33291;46.222;26.460;2022-12-07T03:58:36;22.10;;;10.18;;
47555;SDS011;33291;46.222;26.460;2022-12-07T04:01:03;31.80;;;16.85;;
47555;SDS011;33291;46.222;26.460;2022-12-07T04:03:29;21.45;;;11.98;;
47555;SDS011;33291;46.222;26.460;2022-12-07T04:05:55;46.80;;;22.85;;
47555;SDS011;33291;46.222;26.460;2022-12-07T04:08:21;36.70;;;18.33;;
47555;SDS011;33291;46.222;26.460;2022-12-07T04:10:46;39.10;;;18.08;;
47555;SDS011;33291;46.222;26.460;2022-12-07T04:13:12;35.63;;;18.17;;
47555;SDS011;33291;46.222;26.460;2022-12-07T04:15:37;30.83;;;16.35;;
47555;SDS011;33291;46.222;26.460;2022-12-07T04:18:02;29.67;;;17.38;;
47555;SDS011;33291;46.222;26.460;2022-12-07T04:20:28;27.42;;;14.73;;
47555;SDS011;33291;46.222;26.460;2022-12-07T04:22:53;23.85;;;14.15;;
47555;SDS011;33291;46.222;26.460;2022-12-07T04:25:19;19.58;;;10.15;;
47555;SDS011;33291;46.222;26.460;2022-12-07T04:27:44;18.75;;;10.05;;
47555;SDS011;33291;46.222;26.460;2022-12-07T04:30:10;17.85;;;10.52;;
47555;SDS011;33291;46.222;26.460;2022-12-07T04:32:36;19.40;;;10.25;;
47555;SDS011;33291;46.222;26.460;2022-12-07T04:35:01;16.77;;;8.85;;
47555;SDS011;33291;46.222;26.460;2022-12-07T04:37:28;16.88;;;10.95;;
47555;SDS011;33291;46.222;26.460;2022-12-07T04:39:53;13.80;;;8.38;;
47555;SDS011;33291;46.222;26.460;2022-12-07T04:42:19;16.83;;;10.32;;
47555;SDS011;33291;46.222;26.460;2022-12-07T04:44:44;15.45;;;8.70;;
47555;SDS011;33291;46.222;26.460;2022-12-07T04:47:10;14.82;;;9.25;;
47555;SDS011;33291;46.222;26.460;2022-12-07T04:49:35;16.90;;;9.93;;
47555;SDS011;33291;46.222;26.460;2022-12-07T04:52:01;17.88;;;10.38;;
47555;SDS011;33291;46.222;26.460;2022-12-07T04:54:26;14.13;;;8.57;;
47555;SDS011;33291;46.222;26.460;2022-12-07T04:56:52;16.83;;;8.93;;
47555;SDS011;33291;46.222;26.460;2022-12-07T04:59:18;10.20;;;6.63;;
47555;SDS011;33291;46.222;26.460;2022-12-07T05:01:44;15.00;;;9.55;;
47555;SDS011;33291;46.222;26.460;2022-12-07T05:04:09;19.75;;;9.70;;
47555;SDS011;33291;46.222;26.460;2022-12-07T05:06:35;15.18;;;9.27;;
47555;SDS011;33291;46.222;26.460;2022-12-07T05:09:01;17.00;;;8.95;;
47555;SDS011;33291;46.222;26.460;2022-12-07T05:11:28;11.05;;;7.40;;
47555;SDS011;33291;46.222;26.460;2022-12-07T05:14:07;9.27;;;5.88;;
47555;SDS011;33291;46.222;26.460;2022-12-07T05:16:40;11.43;;;6.95;;
47555;SDS011;33291;46.222;26.460;2022-12-07T05:19:07;11.52;;;6.90;;
47555;SDS011;33291;46.222;26.460;2022-12-07T05:21:33;13.73;;;8.18;;
47555;SDS011;33291;46.222;26.460;2022-12-07T05:23:58;16.25;;;7.35;;
47555;SDS011;33291;46.222;26.460;2022-12-07T05:26:24;13.73;;;7.45;;
47555;SDS011;33291;46.222;26.460;2022-12-07T05:28:51;11.93;;;8.57;;
47555;SDS011;33291;46.222;26.460;2022-12-07T05:31:18;10.32;;;6.57;;
47555;SDS011;33291;46.222;26.460;2022-12-07T05:33:44;8.73;;;5.35;;
47555;SDS011;33291;46.222;26.460;2022-12-07T05:36:09;12.35;;;7.60;;
47555;SDS011;33291;46.222;26.460;2022-12-07T05:38:35;8.63;;;5.47;;
47555;SDS011;33291;46.222;26.460;2022-12-07T05:41:01;10.50;;;7.32;;
47555;SDS011;33291;46.222;26.460;2022-12-07T05:43:28;19.63;;;11.07;;
47555;SDS011;33291;46.222;26.460;2022-12-07T05:45:53;17.88;;;10.02;;
47555;SDS011;33291;46.222;26.460;2022-12-07T05:48:19;14.05;;;9.07;;
47555;SDS011;33291;46.222;26.460;2022-12-07T05:50:47;14.55;;;9.38;;
47555;SDS011;33291;46.222;26.460;2022-12-07T05:53:13;27.88;;;14.70;;
47555;SDS011;33291;46.222;26.460;2022-12-07T05:55:39;30.33;;;15.65;;
47555;SDS011;33291;46.222;26.460;2022-12-07T05:58:04;24.90;;;15.70;;
47555;SDS011;33291;46.222;26.460;2022-12-07T06:03:14;15.57;;;9.57;;
47555;SDS011;33291;46.222;26.460;2022-12-07T06:05:40;25.75;;;15.85;;
47555;SDS011;33291;46.222;26.460;2022-12-07T06:08:05;32.47;;;16.77;;
47555;SDS011;33291;46.222;26.460;2022-12-07T06:10:31;24.58;;;14.93;;
47555;SDS011;33291;46.222;26.460;2022-12-07T06:12:56;26.05;;;12.18;;
47555;SDS011;33291;46.222;26.460;2022-12-07T06:15:22;32.58;;;18.80;;
47555;SDS011;33291;46.222;26.460;2022-12-07T06:17:48;37.33;;;21.48;;
47555;SDS011;33291;46.222;26.460;2022-12-07T06:20:14;33.42;;;19.15;;
47555;SDS011;33291;46.222;26.460;2022-12-07T06:22:39;37.05;;;20.48;;
47555;SDS011;33291;46.222;26.460;2022-12-07T06:25:05;55.88;;;28.52;;
47555;SDS011;33291;46.222;26.460;2022-12-07T06:27:32;42.28;;;21.90;;
47555;SDS011;33291;46.222;26.460;2022-12-07T06:29:58;41.50;;;21.75;;
47555;SDS011;33291;46.222;26.460;2022-12-07T06:32:23;40.17;;;22.80;;
47555;SDS011;33291;46.222;26.460;2022-12-07T06:34:49;31.27;;;17.83;;
47555;SDS011;33291;46.222;26.460;2022-12-07T06:37:14;54.53;;;32.38;;
47555;SDS011;33291;46.222;26.460;2022-12-07T06:39:40;43.60;;;25.02;;
47555;SDS011;33291;46.222;26.460;2022-12-07T06:42:05;60.80;;;30.20;;
47555;SDS011;33291;46.222;26.460;2022-12-07T06:44:31;55.92;;;27.42;;
47555;SDS011;33291;46.222;26.460;2022-12-07T06:46:57;51.25;;;28.08;;
47555;SDS011;33291;46.222;26.460;2022-12-07T06:49:23;62.40;;;30.67;;
47555;SDS011;33291;46.222;26.460;2022-12-07T06:51:48;64.05;;;35.25;;
47555;SDS011;33291;46.222;26.460;2022-12-07T06:54:14;46.67;;;26.92;;
47555;SDS011;33291;46.222;26.460;2022-12-07T06:56:42;72.47;;;32.90;;
47555;SDS011;33291;46.222;26.460;2022-12-07T06:59:07;103.03;;;43.03;;
47555;SDS011;33291;46.222;26.460;2022-12-07T07:01:34;63.05;;;29.15;;
47555;SDS011;33291;46.222;26.460;2022-12-07T07:04:01;41.17;;;18.02;;
47555;SDS011;33291;46.222;26.460;2022-12-07T07:06:26;46.42;;;21.08;;
47555;SDS011;33291;46.222;26.460;2022-12-07T07:08:52;37.13;;;18.95;;
47555;SDS011;33291;46.222;26.460;2022-12-07T07:11:18;102.05;;;48.33;;
47555;SDS011;33291;46.222;26.460;2022-12-07T07:13:44;69.25;;;31.73;;
47555;SDS011;33291;46.222;26.460;2022-12-07T07:16:10;65.90;;;31.98;;
47555;SDS011;33291;46.222;26.460;2022-12-07T07:18:35;69.53;;;34.97;;
47555;SDS011;33291;46.222;26.460;2022-12-07T07:21:01;66.63;;;31.95;;
47555;SDS011;33291;46.222;26.460;2022-12-07T07:23:26;53.92;;;25.40;;
47555;SDS011;33291;46.222;26.460;2022-12-07T07:25:52;64.80;;;35.55;;
47555;SDS011;33291;46.222;26.460;2022-12-07T07:28:18;87.45;;;41.60;;
47555;SDS011;33291;46.222;26.460;2022-12-07T07:30:43;62.45;;;30.83;;
47555;SDS011;33291;46.222;26.460;2022-12-07T07:33:09;22.80;;;13.02;;
47555;SDS011;33291;46.222;26.460;2022-12-07T07:35:36;36.33;;;18.67;;
47555;SDS011;33291;46.222;26.460;2022-12-07T07:38:02;63.05;;;34.25;;
47555;SDS011;33291;46.222;26.460;2022-12-07T07:40:28;45.35;;;23.10;;
47555;SDS011;33291;46.222;26.460;2022-12-07T07:42:54;43.92;;;26.42;;
47555;SDS011;33291;46.222;26.460;2022-12-07T07:45:21;56.30;;;31.30;;
47555;SDS011;33291;46.222;26.460;2022-12-07T07:47:49;60.50;;;34.75;;
47555;SDS011;33291;46.222;26.460;2022-12-07T07:50:14;66.57;;;34.35;;
47555;SDS011;33291;46.222;26.460;2022-12-07T07:52:41;66.43;;;35.58;;
47555;SDS011;33291;46.222;26.460;2022-12-07T07:55:07;37.95;;;19.13;;
47555;SDS011;33291;46.222;26.460;2022-12-07T07:57:34;39.33;;;21.27;;
47555;SDS011;33291;46.222;26.460;2022-12-07T08:00:00;24.50;;;13.40;;
47555;SDS011;33291;46.222;26.460;2022-12-07T08:02:26;45.15;;;22.92;;
47555;SDS011;33291;46.222;26.460;2022-12-07T08:04:54;64.97;;;29.92;;
47555;SDS011;33291;46.222;26.460;2022-12-07T08:07:20;26.45;;;17.15;;
47555;SDS011;33291;46.222;26.460;2022-12-07T08:09:45;21.85;;;12.73;;
47555;SDS011;33291;46.222;26.460;2022-12-07T08:12:11;21.20;;;13.45;;
47555;SDS011;33291;46.222;26.460;2022-12-07T08:14:36;31.25;;;17.85;;
47555;SDS011;33291;46.222;26.460;2022-12-07T08:17:02;41.60;;;22.15;;
47555;SDS011;33291;46.222;26.460;2022-12-07T08:19:27;37.38;;;19.33;;
47555;SDS011;33291;46.222;26.460;2022-12-07T08:21:53;38.15;;;21.10;;
47555;SDS011;33291;46.222;26.460;2022-12-07T08:24:21;109.40;;;50.80;;
47555;SDS011;33291;46.222;26.460;2022-12-07T08:26:47;50.72;;;23.70;;
47555;SDS011;33291;46.222;26.460;2022-12-07T08:29:13;62.38;;;26.17;;
47555;SDS011;33291;46.222;26.460;2022-12-07T08:31:39;95.93;;;40.67;;
47555;SDS011;33291;46.222;26.460;2022-12-07T08:34:04;53.63;;;24.88;;
47555;SDS011;33291;46.222;26.460;2022-12-07T08:36:30;25.10;;;13.70;;
47555;SDS011;33291;46.222;26.460;2022-12-07T08:38:55;25.85;;;14.10;;
47555;SDS011;33291;46.222;26.460;2022-12-07T08:41:21;27.95;;;12.60;;
47555;SDS011;33291;46.222;26.460;2022-12-07T08:43:46;21.02;;;10.90;;
47555;SDS011;33291;46.222;26.460;2022-12-07T08:48:46;14.27;;;8.90;;
47555;SDS011;33291;46.222;26.460;2022-12-07T08:51:18;13.95;;;7.13;;
47555;SDS011;33291;46.222;26.460;2022-12-07T08:53:44;12.18;;;7.00;;
47555;SDS011;33291;46.222;26.460;2022-12-07T08:56:10;13.60;;;7.75;;
47555;SDS011;33291;46.222;26.460;2022-12-07T08:58:36;14.70;;;10.57;;
47555;SDS011;33291;46.222;26.460;2022-12-07T09:01:03;15.40;;;9.23;;
47555;SDS011;33291;46.222;26.460;2022-12-07T09:03:29;18.27;;;10.70;;
47555;SDS011;33291;46.222;26.460;2022-12-07T09:05:55;22.67;;;10.80;;
47555;SDS011;33291;46.222;26.460;2022-12-07T09:08:22;15.68;;;9.52;;
47555;SDS011;33291;46.222;26.460;2022-12-07T09:10:51;14.02;;;9.20;;
47555;SDS011;33291;46.222;26.460;2022-12-07T09:13:17;14.77;;;9.38;;
47555;SDS011;33291;46.222;26.460;2022-12-07T09:15:42;15.02;;;9.13;;
47555;SDS011;33291;46.222;26.460;2022-12-07T09:18:08;28.83;;;14.32;;
47555;SDS011;33291;46.222;26.460;2022-12-07T09:20:33;9.13;;;6.25;;
47555;SDS011;33291;46.222;26.460;2022-12-07T09:22:59;12.55;;;6.82;;
47555;SDS011;33291;46.222;26.460;2022-12-07T09:25:24;20.08;;;9.57;;
47555;SDS011;33291;46.222;26.460;2022-12-07T09:27:56;5.43;;;4.07;;
47555;SDS011;33291;46.222;26.460;2022-12-07T09:30:23;4.32;;;3.03;;
47555;SDS011;33291;46.222;26.460;2022-12-07T09:32:49;5.78;;;3.20;;
47555;SDS011;33291;46.222;26.460;2022-12-07T09:35:14;2.70;;;1.92;;
47555;SDS011;33291;46.222;26.460;2022-12-07T09:37:40;3.20;;;1.77;;
47555;SDS011;33291;46.222;26.460;2022-12-07T09:40:05;2.40;;;1.88;;
47555;SDS011;33291;46.222;26.460;2022-12-07T09:45:13;3.95;;;2.65;;
47555;SDS011;33291;46.222;26.460;2022-12-07T09:47:41;5.13;;;2.35;;
47555;SDS011;33291;46.222;26.460;2022-12-07T09:50:29;3.92;;;2.05;;
47555;SDS011;33291;46.222;26.460;2022-12-07T09:52:55;6.70;;;3.13;;
47555;SDS011;33291;46.222;26.460;2022-12-07T09:55:29;4.70;;;2.50;;
47555;SDS011;33291;46.222;26.460;2022-12-07T09:57:56;3.85;;;2.40;;
47555;SDS011;33291;46.222;26.460;2022-12-07T10:00:23;2.50;;;2.03;;
47555;SDS011;33291;46.222;26.460;2022-12-07T10:02:59;2.85;;;1.92;;
47555;SDS011;33291;46.222;26.460;2022-12-07T10:05:30;3.92;;;2.50;;
47555;SDS011;33291;46.222;26.460;2022-12-07T10:08:00;3.65;;;2.42;;
47555;SDS011;33291;46.222;26.460;2022-12-07T10:10:30;4.53;;;2.75;;
47555;SDS011;33291;46.222;26.460;2022-12-07T10:18:30;4.13;;;2.83;;
47555;SDS011;33291;46.222;26.460;2022-12-07T10:23:36;3.40;;;2.63;;
47555;SDS011;33291;46.222;26.460;2022-12-07T10:26:26;4.07;;;2.80;;
47555;SDS011;33291;46.222;26.460;2022-12-07T10:29:01;3.30;;;2.47;;
47555;SDS011;33291;46.222;26.460;2022-12-07T10:31:40;2.35;;;2.03;;
47555;SDS011;33291;46.222;26.460;2022-12-07T10:34:13;3.78;;;2.90;;
47555;SDS011;33291;46.222;26.460;2022-12-07T10:36:47;2.85;;;2.03;;
47555;SDS011;33291;46.222;26.460;2022-12-07T10:39:18;3.25;;;2.78;;
47555;SDS011;33291;46.222;26.460;2022-12-07T10:42:01;3.20;;;2.10;;
47555;SDS011;33291;46.222;26.460;2022-12-07T10:44:29;4.78;;;2.53;;
47555;SDS011;33291;46.222;26.460;2022-12-07T10:49:29;3.95;;;2.55;;
47555;SDS011;33291;46.222;26.460;2022-12-07T11:00:11;3.58;;;2.45;;
47555;SDS011;33291;46.222;26.460;2022-12-07T11:02:52;7.38;;;2.42;;
47555;SDS011;33291;46.222;26.460;2022-12-07T11:10:55;2.95;;;2.08;;
47555;SDS011;33291;46.222;26.460;2022-12-07T11:22:20;3.35;;;2.28;;
47555;SDS011;33291;46.222;26.460;2022-12-07T11:30:34;3.33;;;2.13;;
47555;SDS011;33291;46.222;26.460;2022-12-07T11:33:29;3.10;;;1.90;;
47555;SDS011;33291;46.222;26.460;2022-12-07T11:38:38;3.67;;;2.35;;
47555;SDS011;33291;46.222;26.460;2022-12-07T11:41:19;2.55;;;1.77;;
47555;SDS011;33291;46.222;26.460;2022-12-07T11:46:30;2.40;;;1.58;;
47555;SDS011;33291;46.222;26.460;2022-12-07T11:49:12;3.20;;;2.10;;
47555;SDS011;33291;46.222;26.460;2022-12-07T11:52:02;2.28;;;1.70;;
47555;SDS011;33291;46.222;26.460;2022-12-07T11:54:32;4.28;;;2.95;;
47555;SDS011;33291;46.222;26.460;2022-12-07T11:57:09;2.70;;;1.80;;
47555;SDS011;33291;46.222;26.460;2022-12-07T12:00:01;2.45;;;1.85;;
47555;SDS011;33291;46.222;26.460;2022-12-07T12:02:36;3.00;;;1.85;;
47555;SDS011;33291;46.222;26.460;2022-12-07T12:05:26;2.40;;;1.88;;
47555;SDS011;33291;46.222;26.460;2022-12-07T12:08:01;2.78;;;1.83;;
47555;SDS011;33291;46.222;26.460;2022-12-07T12:13:19;3.00;;;1.77;;
47555;SDS011;33291;46.222;26.460;2022-12-07T12:16:12;3.50;;;1.92;;
47555;SDS011;33291;46.222;26.460;2022-12-07T12:22:02;2.22;;;1.88;;
47555;SDS011;33291;46.222;26.460;2022-12-07T12:24:50;3.60;;;2.30;;
47555;SDS011;33291;46.222;26.460;2022-12-07T12:27:26;2.53;;;1.63;;
47555;SDS011;33291;46.222;26.460;2022-12-07T12:29:55;2.08;;;1.63;;
47555;SDS011;33291;46.222;26.460;2022-12-07T12:32:31;2.35;;;1.50;;
47555;SDS011;33291;46.222;26.460;2022-12-07T12:38:20;2.08;;;1.42;;
47555;SDS011;33291;46.222;26.460;2022-12-07T12:40:42;3.70;;;2.28;;
47555;SDS011;33291;46.222;26.460;2022-12-07T12:43:39;3.25;;;1.80;;
47555;SDS011;33291;46.222;26.460;2022-12-07T12:51:48;3.55;;;2.00;;
47555;SDS011;33291;46.222;26.460;2022-12-07T12:57:14;4.03;;;2.20;;
47555;SDS011;33291;46.222;26.460;2022-12-07T13:05:23;5.82;;;2.38;;
47555;SDS011;33291;46.222;26.460;2022-12-07T13:07:53;5.25;;;2.25;;
47555;SDS011;33291;46.222;26.460;2022-12-07T13:12:54;7.43;;;4.07;;
47555;SDS011;33291;46.222;26.460;2022-12-07T13:15:35;18.45;;;6.32;;
47555;SDS011;33291;46.222;26.460;2022-12-07T13:20:58;5.38;;;3.10;;
47555;SDS011;33291;46.222;26.460;2022-12-07T13:23:31;2.92;;;1.77;;
47555;SDS011;33291;46.222;26.460;2022-12-07T13:28:50;5.53;;;3.58;;
47555;SDS011;33291;46.222;26.460;2022-12-07T13:31:33;23.30;;;12.52;;
47555;SDS011;33291;46.222;26.460;2022-12-07T13:34:04;28.92;;;14.38;;
47555;SDS011;33291;46.222;26.460;2022-12-07T13:36:36;4.03;;;3.10;;
47555;SDS011;33291;46.222;26.460;2022-12-07T13:39:23;3.63;;;2.15;;
47555;SDS011;33291;46.222;26.460;2022-12-07T13:41:54;6.80;;;3.55;;
47555;SDS011;33291;46.222;26.460;2022-12-07T13:44:24;35.83;;;12.73;;
47555;SDS011;33291;46.222;26.460;2022-12-07T13:49:29;4.25;;;2.50;;
47555;SDS011;33291;46.222;26.460;2022-12-07T13:54:46;9.50;;;5.40;;
47555;SDS011;33291;46.222;26.460;2022-12-07T13:57:15;8.73;;;4.32;;
47555;SDS011;33291;46.222;26.460;2022-12-07T13:59:41;11.07;;;5.75;;
47555;SDS011;33291;46.222;26.460;2022-12-07T14:07:54;20.48;;;7.80;;
47555;SDS011;33291;46.222;26.460;2022-12-07T14:10:23;8.50;;;3.67;;
47555;SDS011;33291;46.222;26.460;2022-12-07T14:12:49;6.93;;;3.58;;
47555;SDS011;33291;46.222;26.460;2022-12-07T14:15:19;9.95;;;5.70;;
47555;SDS011;33291;46.222;26.460;2022-12-07T14:17:51;16.73;;;8.40;;
47555;SDS011;33291;46.222;26.460;2022-12-07T14:22:56;13.75;;;5.03;;
47555;SDS011;33291;46.222;26.460;2022-12-07T14:25:23;3.35;;;2.50;;
47555;SDS011;33291;46.222;26.460;2022-12-07T14:30:21;10.55;;;5.40;;
47555;SDS011;33291;46.222;26.460;2022-12-07T14:32:52;6.85;;;4.43;;
47555;SDS011;33291;46.222;26.460;2022-12-07T14:35:19;35.10;;;12.65;;
47555;SDS011;33291;46.222;26.460;2022-12-07T14:37:46;21.85;;;7.65;;
47555;SDS011;33291;46.222;26.460;2022-12-07T14:40:14;19.02;;;8.30;;
47555;SDS011;33291;46.222;26.460;2022-12-07T14:42:42;13.30;;;7.07;;
47555;SDS011;33291;46.222;26.460;2022-12-07T14:45:18;11.82;;;6.68;;
47555;SDS011;33291;46.222;26.460;2022-12-07T14:47:45;9.55;;;4.65;;
47555;SDS011;33291;46.222;26.460;2022-12-07T14:50:15;15.43;;;4.97;;
47555;SDS011;33291;46.222;26.460;2022-12-07T14:52:43;79.43;;;36.40;;
47555;SDS011;33291;46.222;26.460;2022-12-07T14:55:24;38.50;;;17.02;;
47555;SDS011;33291;46.222;26.460;2022-12-07T14:57:51;12.43;;;6.53;;
47555;SDS011;33291;46.222;26.460;2022-12-07T15:00:17;14.82;;;7.53;;
47555;SDS011;33291;46.222;26.460;2022-12-07T15:02:45;29.25;;;13.45;;
47555;SDS011;33291;46.222;26.460;2022-12-07T15:05:11;71.00;;;38.10;;
47555;SDS011;33291;46.222;26.460;2022-12-07T15:07:38;19.55;;;11.38;;
47555;SDS011;33291;46.222;26.460;2022-12-07T15:10:05;3.15;;;2.35;;
47555;SDS011;33291;46.222;26.460;2022-12-07T15:12:31;4.70;;;3.88;;
47555;SDS011;33291;46.222;26.460;2022-12-07T15:14:57;5.53;;;3.13;;
47555;SDS011;33291;46.222;26.460;2022-12-07T15:17:22;13.98;;;5.35;;
47555;SDS011;33291;46.222;26.460;2022-12-07T15:19:48;7.05;;;4.03;;
47555;SDS011;33291;46.222;26.460;2022-12-07T15:22:13;30.15;;;17.05;;
47555;SDS011;33291;46.222;26.460;2022-12-07T15:24:39;18.35;;;10.73;;
47555;SDS011;33291;46.222;26.460;2022-12-07T15:27:05;10.75;;;4.72;;
47555;SDS011;33291;46.222;26.460;2022-12-07T15:29:30;8.35;;;4.53;;
47555;SDS011;33291;46.222;26.460;2022-12-07T15:31:56;5.00;;;4.50;;
47555;SDS011;33291;46.222;26.460;2022-12-07T15:34:22;4.88;;;4.22;;
47555;SDS011;33291;46.222;26.460;2022-12-07T15:36:49;2.60;;;1.88;;
47555;SDS011;33291;46.222;26.460;2022-12-07T15:39:15;3.17;;;2.08;;
47555;SDS011;33291;46.222;26.460;2022-12-07T15:41:40;2.83;;;1.88;;
47555;SDS011;33291;46.222;26.460;2022-12-07T15:44:06;6.50;;;3.90;;
47555;SDS011;33291;46.222;26.460;2022-12-07T15:46:52;4.25;;;3.58;;
47555;SDS011;33291;46.222;26.460;2022-12-07T15:49:18;3.47;;;2.35;;
47555;SDS011;33291;46.222;26.460;2022-12-07T15:51:44;11.63;;;4.93;;
47555;SDS011;33291;46.222;26.460;2022-12-07T15:54:20;4.28;;;2.53;;
47555;SDS011;33291;46.222;26.460;2022-12-07T15:56:51;2.88;;;1.90;;
47555;SDS011;33291;46.222;26.460;2022-12-07T15:59:17;19.10;;;9.75;;
47555;SDS011;33291;46.222;26.460;2022-12-07T16:01:42;3.35;;;2.72;;
47555;SDS011;33291;46.222;26.460;2022-12-07T16:04:08;5.00;;;3.10;;
47555;SDS011;33291;46.222;26.460;2022-12-07T16:06:34;3.60;;;1.95;;
47555;SDS011;33291;46.222;26.460;2022-12-07T16:09:00;2.53;;;1.77;;
47555;SDS011;33291;46.222;26.460;2022-12-07T16:11:26;2.60;;;2.38;;
47555;SDS011;33291;46.222;26.460;2022-12-07T16:13:52;3.05;;;2.08;;
47555;SDS011;33291;46.222;26.460;2022-12-07T16:16:18;5.28;;;2.25;;
47555;SDS011;33291;46.222;26.460;2022-12-07T16:18:45;15.23;;;7.05;;
47555;SDS011;33291;46.222;26.460;2022-12-07T16:21:12;53.50;;;22.33;;
47555;SDS011;33291;46.222;26.460;2022-12-07T16:23:39;28.23;;;13.95;;
47555;SDS011;33291;46.222;26.460;2022-12-07T16:28:35;189.43;;;81.88;;
47555;SDS011;33291;46.222;26.460;2022-12-07T16:31:02;64.90;;;27.45;;
47555;SDS011;33291;46.222;26.460;2022-12-07T16:33:33;46.85;;;20.48;;
47555;SDS011;33291;46.222;26.460;2022-12-07T16:35:59;4.90;;;3.75;;
47555;SDS011;33291;46.222;26.460;2022-12-07T16:38:26;15.05;;;8.35;;
47555;SDS011;33291;46.222;26.460;2022-12-07T16:40:52;3.97;;;2.58;;
47555;SDS011;33291;46.222;26.460;2022-12-07T16:43:18;9.05;;;6.50;;
47555;SDS011;33291;46.222;26.460;2022-12-07T16:45:45;4.90;;;3.83;;
47555;SDS011;33291;46.222;26.460;2022-12-07T16:48:11;4.60;;;2.95;;